createdAt,value
2018-06-05T00:01:14.694Z,14.5
2018-06-05T00:06:44.361Z,14.5
2018-06-05T00:12:13.184Z,14.6
2018-06-05T00:17:41.942Z,14.7
2018-06-05T00:23:10.703Z,14.7
2018-06-05T00:28:39.506Z,14.7
2018-06-05T00:34:08.544Z,14.8
2018-06-05T00:39:38.198Z,14.7
2018-06-05T00:45:06.867Z,14.7
2018-06-05T00:50:35.633Z,14.7
2018-06-05T00:56:04.484Z,14.7
2018-06-05T01:01:34.436Z,14.7
2018-06-05T01:07:03.976Z,14.7
2018-06-05T01:12:33.830Z,14.7
2018-06-05T01:18:03.550Z,14.7
2018-06-05T01:23:32.362Z,14.7
2018-06-05T01:29:01.100Z,14.7
2018-06-05T01:34:29.881Z,14.7
2018-06-05T01:39:59.694Z,14.8
2018-06-05T01:50:58.321Z,14.8
2018-06-05T01:56:28.067Z,14.8
2018-06-05T02:01:56.917Z,14.8
2018-06-05T02:07:26.612Z,14.7
2018-06-05T02:12:56.452Z,14.7
2018-06-05T02:18:25.250Z,14.7
2018-06-05T02:23:53.989Z,14.7
2018-06-05T02:29:23.725Z,14.7
2018-06-05T02:34:53.558Z,14.7
2018-06-05T02:40:22.452Z,14.7
2018-06-05T02:45:51.115Z,14.7
2018-06-05T02:51:20.055Z,14.7
2018-06-05T02:56:48.648Z,14.7
2018-06-05T03:02:17.530Z,14.6
2018-06-05T03:07:47.244Z,14.6
2018-06-05T03:13:16.382Z,14.6
2018-06-05T03:18:46.360Z,14.6
2018-06-05T03:24:14.892Z,14.6
2018-06-05T03:29:44.307Z,14.7
2018-06-05T03:35:14.103Z,14.7
2018-06-05T03:40:44.008Z,14.8
2018-06-05T03:46:13.754Z,14.9
2018-06-05T03:51:42.467Z,14.9
2018-06-05T03:57:12.586Z,14.9
2018-06-05T04:02:42.119Z,14.9
2018-06-05T04:08:11.870Z,14.8
2018-06-05T04:13:40.629Z,14.8
2018-06-05T04:19:10.473Z,14.9
2018-06-05T04:24:40.281Z,14.9
2018-06-05T04:30:09.048Z,15
2018-06-05T04:35:38.798Z,15
2018-06-05T04:41:08.966Z,15.1
2018-06-05T04:46:37.508Z,15.1
2018-06-05T04:52:06.289Z,15.1
2018-06-05T05:03:04.922Z,15.2
2018-06-05T05:08:34.693Z,15.1
2018-06-05T05:14:04.894Z,15.1
2018-06-05T05:14:06.865Z,15.1
2018-06-05T05:19:34.382Z,15.2
2018-06-05T05:25:04.261Z,15.4
2018-06-05T05:30:33.052Z,15.5
2018-06-05T05:36:02.891Z,15.4
2018-06-05T05:41:32.714Z,15.4
2018-06-05T05:47:01.644Z,15.4
2018-06-05T05:52:30.377Z,15.4
2018-06-05T05:57:59.235Z,15.5
2018-06-05T06:03:28.080Z,15.6
2018-06-05T06:08:57.222Z,15.6
2018-06-05T06:14:26.824Z,15.8
2018-06-05T06:19:56.741Z,15.8
2018-06-05T06:19:57.212Z,15.8
2018-06-05T06:25:26.772Z,15.9
2018-06-05T06:30:55.485Z,15.9
2018-06-05T06:36:25.354Z,15.8
2018-06-05T06:41:55.249Z,15.9
2018-06-05T06:47:25.096Z,15.9
2018-06-05T06:52:54.999Z,16
2018-06-05T06:58:24.970Z,16.3
2018-06-05T07:03:54.864Z,16.4
2018-06-05T07:09:24.790Z,16.4
2018-06-05T07:14:53.854Z,16.5
2018-06-05T07:20:22.900Z,16.4
2018-06-05T07:25:51.632Z,16.4
2018-06-05T07:31:20.693Z,16.5
2018-06-05T07:36:50.646Z,16.7
2018-06-05T07:42:19.609Z,16.9
2018-06-05T07:47:49.288Z,17
2018-06-05T07:53:17.628Z,17.1
2018-06-05T07:58:46.637Z,17.2
2018-06-05T08:04:15.694Z,17.4
2018-06-05T08:09:44.740Z,17.4
2018-06-05T08:15:14.015Z,17.4
2018-06-05T08:20:42.823Z,17.5
2018-06-05T08:26:12.860Z,17.7
2018-06-05T08:31:42.973Z,17.9
2018-06-05T08:37:12.113Z,18
2018-06-05T08:42:41.216Z,18.1
2018-06-05T08:48:11.298Z,18.2
2018-06-05T08:53:40.490Z,18.3
2018-06-05T08:59:10.943Z,18.5
2018-06-05T09:04:40.871Z,18.7
2018-06-05T09:10:11.082Z,18.7
2018-06-05T09:10:11.532Z,18.7
2018-06-05T09:15:40.377Z,18.7
2018-06-05T09:21:09.392Z,18.9
2018-06-05T09:26:38.647Z,19.1
2018-06-05T09:32:08.008Z,19.3
2018-06-05T09:37:37.272Z,19.5
2018-06-05T09:43:07.478Z,19.7
2018-06-05T09:48:36.752Z,19.8
2018-06-05T09:54:06.171Z,19.9
2018-06-05T09:59:35.398Z,20
2018-06-05T10:05:04.768Z,20.1
2018-06-05T10:10:34.116Z,20.2
2018-06-05T10:16:03.464Z,20.2
2018-06-05T10:21:33.840Z,20.2
2018-06-05T10:27:04.269Z,20.3
2018-06-05T10:32:34.652Z,20.5
2018-06-05T10:38:04.012Z,20.7
2018-06-05T10:43:33.434Z,20.7
2018-06-05T10:49:03.021Z,20.8
2018-06-05T10:54:33.261Z,21
2018-06-05T11:00:02.729Z,21.1
2018-06-05T11:05:32.206Z,21.3
2018-06-05T11:11:02.701Z,21.6
2018-06-05T11:16:32.276Z,21.7
2018-06-05T11:22:02.797Z,21.9
2018-06-05T11:27:32.526Z,22
2018-06-05T11:33:02.990Z,22
2018-06-05T11:38:33.615Z,22.1
2018-06-05T11:44:04.401Z,22.1
2018-06-05T11:49:33.836Z,22.1
2018-06-05T11:55:04.553Z,22.1
2018-06-05T12:00:35.062Z,22.2
2018-06-05T12:06:04.729Z,22.5
2018-06-05T12:11:35.458Z,22.7
2018-06-05T12:17:05.107Z,22.8
2018-06-05T12:22:35.798Z,22.8
2018-06-05T12:28:06.496Z,22.7
2018-06-05T12:33:36.156Z,22.7
2018-06-05T12:39:05.887Z,22.7
2018-06-05T12:44:35.577Z,22.7
2018-06-05T12:50:05.216Z,22.8
2018-06-05T12:55:35.932Z,22.9
2018-06-05T13:01:06.671Z,22.9
2018-06-05T13:06:37.442Z,23
2018-06-05T13:12:08.334Z,23
2018-06-05T13:17:38.225Z,23.1
2018-06-05T13:23:07.703Z,23.2
2018-06-05T13:28:37.413Z,23.2
2018-06-05T13:34:07.097Z,23.2
2018-06-05T13:39:36.873Z,23.3
2018-06-05T13:45:06.615Z,23.3
2018-06-05T13:50:37.547Z,23.4
2018-06-05T13:50:38.047Z,23.4
2018-06-05T13:56:08.199Z,23.5
2018-06-05T14:01:37.932Z,23.4
2018-06-05T14:07:07.633Z,23.4
2018-06-05T14:12:38.383Z,23.4
2018-06-05T14:18:09.232Z,23.4
2018-06-05T14:23:38.932Z,23.3
2018-06-05T14:29:08.746Z,23.3
2018-06-05T14:34:39.370Z,23.2
2018-06-05T14:40:10.163Z,23.1
2018-06-05T14:45:40.865Z,23.1
2018-06-05T14:51:10.627Z,23.2
2018-06-05T14:56:40.767Z,23.3
2018-06-05T15:02:10.172Z,23.3
2018-06-05T15:07:39.861Z,23.3
2018-06-05T15:13:09.775Z,23.3
2018-06-05T15:18:40.488Z,23.2
2018-06-05T15:24:11.145Z,23.1
2018-06-05T15:29:40.878Z,23.1
2018-06-05T15:35:10.625Z,23.2
2018-06-05T15:40:41.534Z,23.2
2018-06-05T15:46:11.135Z,23.2
2018-06-05T15:51:40.866Z,23.2
2018-06-05T15:57:12.092Z,23.2
2018-06-05T15:57:12.289Z,23.2
2018-06-05T16:02:42.343Z,23.2
2018-06-05T16:08:13.089Z,23.2
2018-06-05T16:13:43.928Z,23.2
2018-06-05T16:19:14.664Z,23.1
2018-06-05T16:24:45.340Z,23.1
2018-06-05T16:30:15.169Z,23.1
2018-06-05T16:35:45.872Z,23.1
2018-06-05T16:41:15.691Z,23.1
2018-06-05T16:46:46.454Z,23.2
2018-06-05T16:52:16.078Z,23.2
2018-06-05T16:57:46.909Z,23.2
2018-06-05T17:03:17.667Z,23.2
2018-06-05T17:08:47.474Z,23.2
2018-06-05T17:14:17.100Z,23.2
2018-06-05T17:19:47.864Z,23.2
2018-06-05T17:25:17.791Z,23.2
2018-06-05T17:30:47.348Z,23.1
2018-06-05T17:36:18.148Z,22.9
2018-06-05T17:41:47.882Z,22.6
2018-06-05T17:47:17.551Z,22.4
2018-06-05T17:52:47.168Z,22.1
2018-06-05T17:58:16.796Z,21.9
2018-06-05T18:03:46.472Z,21.8
2018-06-05T18:09:16.973Z,21.6
2018-06-05T18:14:46.968Z,21.4
2018-06-05T18:20:17.137Z,21.3
2018-06-05T18:25:47.680Z,21.2
2018-06-05T18:31:18.428Z,21
2018-06-05T18:36:47.695Z,20.9
2018-06-05T18:42:17.077Z,20.7
2018-06-05T18:47:46.574Z,20.6
2018-06-05T18:53:16.015Z,20.5
2018-06-05T18:58:45.687Z,20.4
2018-06-05T19:04:15.896Z,20.2
2018-06-05T19:09:45.305Z,20.1
2018-06-05T19:15:14.607Z,20
2018-06-05T19:20:45.019Z,19.9
2018-06-05T19:26:15.601Z,19.8
2018-06-05T19:31:45.771Z,19.6
2018-06-05T19:37:14.989Z,19.4
2018-06-05T19:42:44.584Z,19.3
2018-06-05T19:48:14.597Z,19.2
2018-06-05T19:53:43.892Z,19.1
2018-06-05T19:59:13.369Z,18.9
2018-06-05T20:04:42.412Z,18.8
2018-06-05T20:10:11.605Z,18.6
2018-06-05T20:15:41.885Z,18.5
2018-06-05T20:21:11.027Z,18.5
2018-06-05T20:26:40.597Z,18.4
2018-06-05T20:32:10.497Z,18.3
2018-06-05T20:37:39.599Z,18.3
2018-06-05T20:43:10.069Z,18.2
2018-06-05T20:48:38.991Z,18.1
2018-06-05T20:54:09.114Z,18
2018-06-05T20:59:39.249Z,17.9
2018-06-05T21:05:08.624Z,17.7
2018-06-05T21:10:37.567Z,17.6
2018-06-05T21:16:07.644Z,17.5
2018-06-05T21:21:37.994Z,17.4
2018-06-05T21:27:07.838Z,17.3
2018-06-05T21:32:36.864Z,17.3
2018-06-05T21:38:06.928Z,17.2
2018-06-05T21:43:37.064Z,17.1
2018-06-05T21:49:07.117Z,17
2018-06-05T21:54:36.136Z,16.9
2018-06-05T22:00:05.316Z,16.8
2018-06-05T22:05:34.190Z,16.7
2018-06-05T22:11:03.126Z,16.6
2018-06-05T22:16:32.097Z,16.6
2018-06-05T22:22:01.305Z,16.6
2018-06-05T22:27:31.597Z,16.5
2018-06-05T22:33:01.136Z,16.4
2018-06-05T22:38:31.209Z,16.3
2018-06-05T22:44:01.062Z,16.2
2018-06-05T22:49:30.979Z,16.2
2018-06-05T22:55:00.943Z,16.2
2018-06-05T23:00:30.140Z,16.2
2018-06-05T23:05:58.883Z,16.2
2018-06-05T23:11:28.814Z,16.2
2018-06-05T23:16:58.751Z,16.1
2018-06-05T23:22:28.722Z,16.1
2018-06-05T23:27:59.079Z,16.1
2018-06-05T23:33:27.612Z,16
2018-06-05T23:38:56.612Z,16
2018-06-05T23:44:26.580Z,16
2018-06-05T23:49:55.452Z,15.9
2018-06-05T23:55:25.353Z,15.9
